Time;durP1;ratioP1;P1;durP2;ratioP2;P2;SDS_P1;SDS_P2;PMS_P1;PMS_P2;Temp;Humidity;BMP_temperature;BMP_pressure;BME280_temperature;BME280_humidity;BME280_pressure;Samples;Min_cycle;Max_cycle;Signal;HPM_P1;HPM_P2
2023/04/10 00:00:30;;;;;;;13.70;11.65;;;14.50;56.10;;;;;;5024409;28;20052;-76
2023/04/10 00:02:58;;;;;;;14.18;12.77;;;14.50;56.10;;;;;;5017688;28;20120;-77
2023/04/10 00:05:24;;;;;;;11.02;9.98;;;14.50;56.20;;;;;;5019494;28;20053;-77
2023/04/10 00:07:50;;;;;;;11.93;10.48;;;14.40;56.10;;;;;;5002922;28;20544;-78
2023/04/10 00:10:16;;;;;;;12.43;9.73;;;14.40;56.20;;;;;;5012276;28;20076;-76
2023/04/10 00:12:43;;;;;;;11.65;9.75;;;14.40;56.30;;;;;;5015637;28;20032;-77
2023/04/10 00:15:09;;;;;;;10.45;9.07;;;14.40;56.40;;;;;;5019356;28;20034;-78
2023/04/10 00:17:35;;;;;;;10.65;9.57;;;14.40;56.50;;;;;;5023232;28;20033;-78
2023/04/10 00:20:04;;;;;;;10.40;8.88;;;14.40;56.50;;;;;;5021680;28;20549;-77
2023/04/10 00:22:31;;;;;;;9.20;8.25;;;14.40;56.60;;;;;;5007519;28;20029;-77
2023/04/10 00:24:57;;;;;;;9.25;8.32;;;14.40;56.70;;;;;;5019488;28;20156;-77
2023/04/10 00:27:23;;;;;;;9.05;8.15;;;14.40;56.80;;;;;;4998629;28;20346;-77
2023/04/10 00:29:49;;;;;;;7.55;6.82;;;14.40;56.90;;;;;;5014125;28;20496;-77
2023/04/10 00:32:15;;;;;;;7.72;6.93;;;14.40;57.00;;;;;;5018378;28;20117;-76
2023/04/10 00:34:41;;;;;;;8.20;7.40;;;14.40;57.10;;;;;;5006040;28;20022;-75
2023/04/10 00:37:07;;;;;;;8.07;6.95;;;14.30;57.00;;;;;;5019260;28;20029;-75
2023/04/10 00:39:33;;;;;;;7.57;6.40;;;14.30;57.00;;;;;;5015055;28;20029;-75
2023/04/10 00:42:00;;;;;;;6.72;6.03;;;14.30;57.10;;;;;;5005061;28;20033;-75
2023/04/10 00:44:26;;;;;;;5.70;5.10;;;14.30;57.20;;;;;;5012433;28;20133;-75
2023/04/10 00:46:52;;;;;;;6.57;5.05;;;14.40;57.40;;;;;;5001938;28;21120;-75
2023/04/10 00:49:18;;;;;;;6.65;5.97;;;14.30;57.30;;;;;;5006427;28;20072;-76
2023/04/10 00:51:47;;;;;;;5.35;4.85;;;14.30;57.40;;;;;;5006031;28;20099;-77
2023/04/10 00:54:13;;;;;;;4.65;4.25;;;14.30;57.40;;;;;;5022085;28;20293;-75
2023/04/10 00:56:39;;;;;;;5.70;4.93;;;14.30;57.50;;;;;;4999431;28;20713;-76
2023/04/10 00:59:05;;;;;;;4.53;4.13;;;14.30;57.60;;;;;;4997920;28;20057;-77
2023/04/10 01:01:34;;;;;;;4.68;4.28;;;14.30;57.60;;;;;;5011531;28;20042;-77
2023/04/10 01:04:01;;;;;;;4.47;4.07;;;14.30;57.80;;;;;;5023603;28;20073;-75
2023/04/10 01:06:59;;;;;;;6.10;4.38;;;14.30;57.80;;;;;;5022484;28;20032;-75
2023/04/10 01:09:35;;;;;;;5.20;3.90;;;14.30;58.00;;;;;;5022989;28;20077;-75
2023/04/10 01:12:08;;;;;;;4.55;3.70;;;14.30;57.90;;;;;;4997672;28;20054;-77
2023/04/10 01:14:43;;;;;;;3.75;3.40;;;14.30;57.90;;;;;;5018711;28;20044;-76
2023/04/10 01:17:27;;;;;;;3.58;3.28;;;14.30;57.90;;;;;;4995080;28;20109;-75
2023/04/10 01:20:13;;;;;;;3.03;2.72;;;14.30;58.10;;;;;;5006073;28;20044;-75
2023/04/10 01:22:53;;;;;;;2.97;2.58;;;14.30;58.20;;;;;;5018804;28;20042;-75
2023/04/10 01:25:55;;;;;;;3.05;2.85;;;14.30;58.20;;;;;;5004254;28;20056;-76
2023/04/10 01:28:55;;;;;;;3.17;2.78;;;14.20;58.20;;;;;;5005175;28;20037;-77
2023/04/10 01:31:43;;;;;;;3.10;2.88;;;14.20;58.20;;;;;;5002662;28;20121;-77
2023/04/10 01:34:15;;;;;;;3.17;2.95;;;14.20;58.30;;;;;;5022030;28;20029;-75
2023/04/10 01:36:58;;;;;;;3.10;2.80;;;14.20;58.20;;;;;;5004280;28;20064;-78
2023/04/10 01:39:27;;;;;;;2.58;2.15;;;14.20;58.40;;;;;;4999049;28;20037;-75
2023/04/10 01:41:55;;;;;;;2.70;2.50;;;14.20;58.30;;;;;;4991895;28;20433;-76
2023/04/10 01:44:35;;;;;;;2.50;2.30;;;14.20;58.40;;;;;;5004801;28;20109;-76
2023/04/10 01:47:03;;;;;;;2.60;2.40;;;14.20;58.50;;;;;;5006970;28;20452;-75
2023/04/10 01:49:31;;;;;;;2.90;2.20;;;14.20;58.50;;;;;;5022258;28;20382;-75
2023/04/10 01:52:05;;;;;;;1.70;1.60;;;14.20;58.60;;;;;;4997667;28;20060;-74
2023/04/10 01:54:32;;;;;;;2.42;2.13;;;14.20;58.70;;;;;;5006899;28;20043;-75
2023/04/10 01:57:02;;;;;;;2.50;2.20;;;14.20;58.80;;;;;;5004999;28;20036;-75
2023/04/10 01:59:31;;;;;;;1.98;1.85;;;14.20;58.80;;;;;;5007821;28;20052;-75
2023/04/10 02:01:58;;;;;;;1.98;1.70;;;14.20;59.00;;;;;;5009580;28;20402;-75
2023/04/10 02:04:25;;;;;;;1.73;1.60;;;14.20;59.00;;;;;;5013218;28;20525;-76
2023/04/10 02:07:09;;;;;;;1.95;1.50;;;14.20;59.00;;;;;;5025647;28;20040;-76
2023/04/10 02:10:02;;;;;;;2.00;1.77;;;14.20;59.10;;;;;;5024396;28;20056;-77
2023/04/10 02:12:33;;;;;;;1.57;1.47;;;14.20;59.20;;;;;;5023732;28;20128;-77
2023/04/10 02:15:01;;;;;;;2.38;1.98;;;14.20;59.00;;;;;;5026080;28;20040;-77
2023/04/10 02:17:29;;;;;;;1.48;1.33;;;14.20;59.10;;;;;;5004486;28;20041;-79
2023/04/10 02:19:57;;;;;;;2.55;1.40;;;14.20;59.20;;;;;;5027027;28;20587;-77
2023/04/10 02:22:24;;;;;;;1.42;1.33;;;14.20;59.30;;;;;;5026344;28;20033;-77
2023/04/10 02:24:53;;;;;;;2.17;1.65;;;14.20;59.30;;;;;;4995786;28;20048;-77
2023/04/10 02:27:36;;;;;;;1.70;1.60;;;14.20;59.40;;;;;;5020527;28;20033;-76
2023/04/10 02:30:03;;;;;;;1.63;1.45;;;14.20;59.60;;;;;;5016109;28;20037;-77
2023/04/10 02:32:34;;;;;;;1.98;1.50;;;14.20;59.50;;;;;;4999694;28;20115;-74
2023/04/10 02:35:03;;;;;;;1.83;1.73;;;14.10;59.40;;;;;;4998284;28;20513;-75
2023/04/10 02:37:30;;;;;;;2.38;1.55;;;14.20;59.70;;;;;;4980524;28;20037;-76
2023/04/10 02:39:58;;;;;;;1.40;1.30;;;14.10;59.60;;;;;;4990182;28;20033;-77
2023/04/10 02:42:26;;;;;;;1.75;1.65;;;14.20;60.40;;;;;;5005025;28;20115;-75
2023/04/10 02:44:55;;;;;;;2.08;1.30;;;14.10;59.70;;;;;;4993464;28;20033;-76
2023/04/10 02:47:22;;;;;;;2.20;1.75;;;14.10;59.80;;;;;;5002094;28;20159;-76
2023/04/10 02:49:48;;;;;;;1.83;1.52;;;14.10;59.80;;;;;;5018462;28;20061;-76
2023/04/10 02:52:16;;;;;;;1.55;1.45;;;14.10;59.90;;;;;;5023774;28;20048;-76
2023/04/10 02:54:42;;;;;;;1.77;1.67;;;14.20;60.10;;;;;;5024863;28;20515;-77
2023/04/10 02:57:08;;;;;;;5.22;1.40;;;14.10;60.00;;;;;;5024171;28;20389;-76
2023/04/10 02:59:34;;;;;;;1.65;1.33;;;14.10;60.00;;;;;;5028183;28;20030;-76
2023/04/10 03:02:02;;;;;;;1.90;1.70;;;14.20;60.30;;;;;;5027795;28;20029;-77
2023/04/10 03:04:32;;;;;;;1.30;1.20;;;14.20;60.30;;;;;;5028468;28;20424;-77
2023/04/10 03:06:58;;;;;;;2.58;1.60;;;14.10;60.20;;;;;;5025255;28;20037;-75
2023/04/10 03:09:24;;;;;;;2.35;1.67;;;14.10;60.20;;;;;;5027986;28;20498;-75
2023/04/10 03:11:50;;;;;;;1.20;1.00;;;14.10;60.30;;;;;;5030196;28;20033;-75
2023/04/10 03:14:16;;;;;;;1.30;1.20;;;14.10;60.30;;;;;;5026966;28;20056;-76
2023/04/10 03:16:43;;;;;;;1.40;1.30;;;14.10;60.40;;;;;;5004033;28;20034;-76
2023/04/10 03:19:09;;;;;;;1.63;1.10;;;14.10;60.40;;;;;;5024053;28;20033;-76
2023/04/10 03:21:35;;;;;;;1.00;1.00;;;14.10;60.50;;;;;;5039512;28;20521;-75
2023/04/10 03:24:03;;;;;;;1.10;1.00;;;14.10;60.50;;;;;;5019610;28;20109;-77
2023/04/10 03:26:31;;;;;;;1.25;1.13;;;14.10;60.60;;;;;;5025501;28;20052;-77
2023/04/10 03:28:57;;;;;;;1.20;1.00;;;14.10;60.60;;;;;;5028790;28;20041;-76
2023/04/10 03:31:22;;;;;;;1.40;1.30;;;14.10;60.70;;;;;;5025001;28;20037;-76
2023/04/10 03:33:52;;;;;;;0.95;0.95;;;14.00;60.50;;;;;;5026234;28;20064;-77
2023/04/10 03:36:18;;;;;;;1.42;1.02;;;14.10;60.70;;;;;;5035866;28;20026;-77
2023/04/10 03:38:44;;;;;;;1.38;1.20;;;14.00;60.60;;;;;;5026990;28;20100;-77
2023/04/10 03:41:10;;;;;;;1.20;1.10;;;14.00;61.20;;;;;;5027034;28;20037;-76
2023/04/10 03:43:36;;;;;;;1.13;1.00;;;14.00;60.70;;;;;;5024865;28;20037;-76
2023/04/10 03:46:03;;;;;;;1.00;0.90;;;14.00;60.80;;;;;;5019535;28;20045;-77
2023/04/10 03:48:30;;;;;;;1.23;0.93;;;14.00;60.80;;;;;;5027010;28;20272;-76
2023/04/10 03:50:57;;;;;;;2.45;1.00;;;14.00;60.90;;;;;;5010091;28;20041;-76
2023/04/10 03:53:23;;;;;;;1.33;1.23;;;14.00;60.90;;;;;;5022827;28;20033;-77
2023/04/10 03:55:51;;;;;;;1.55;1.15;;;14.00;60.90;;;;;;5028294;28;20448;-77
2023/04/10 03:58:18;;;;;;;1.60;1.00;;;14.00;61.00;;;;;;5007733;28;20037;-77
2023/04/10 04:00:45;;;;;;;1.88;0.95;;;14.00;61.00;;;;;;5023265;28;20495;-75
2023/04/10 04:03:20;;;;;;;0.80;0.80;;;14.00;61.10;;;;;;5026301;28;20401;-75
2023/04/10 04:06:03;;;;;;;0.90;0.90;;;14.00;61.10;;;;;;5020755;28;20068;-76
2023/04/10 04:08:44;;;;;;;0.98;0.88;;;14.00;61.00;;;;;;5011934;28;20038;-75
2023/04/10 04:11:16;;;;;;;2.90;1.77;;;14.00;61.10;;;;;;5027528;28;20389;-76
2023/04/10 04:14:00;;;;;;;1.95;0.80;;;14.00;61.10;;;;;;5012899;28;20273;-77
2023/04/10 04:16:50;;;;;;;1.13;0.90;;;14.00;61.10;;;;;;5020498;28;20076;-76
2023/04/10 04:19:35;;;;;;;1.58;0.77;;;13.90;61.00;;;;;;5012453;28;20420;-77
2023/04/10 04:22:24;;;;;;;0.82;0.75;;;13.90;61.00;;;;;;5018775;28;20067;-76
2023/04/10 04:25:13;;;;;;;1.08;0.80;;;13.90;61.00;;;;;;5007728;28;20053;-76
2023/04/10 04:27:52;;;;;;;1.35;0.95;;;13.90;61.10;;;;;;5013079;28;20060;-75
2023/04/10 04:30:47;;;;;;;1.20;0.98;;;13.90;61.10;;;;;;5012301;28;20513;-76
2023/04/10 04:33:19;;;;;;;2.40;0.77;;;13.90;61.60;;;;;;5022039;28;20593;-75
2023/04/10 04:36:11;;;;;;;1.45;0.93;;;13.80;60.90;;;;;;5016449;28;20079;-75
2023/04/10 04:39:04;;;;;;;;;;;13.80;61.00;;;;;;5006938;28;20109;-76
2023/04/10 04:41:42;;;;;;;1.98;0.98;;;13.80;60.90;;;;;;5009225;28;20446;-75
2023/04/10 04:44:40;;;;;;;1.85;1.30;;;13.80;60.80;;;;;;5000977;28;20037;-76
2023/04/10 04:47:23;;;;;;;1.23;0.80;;;13.80;60.90;;;;;;5014093;28;20054;-77
2023/04/10 04:50:15;;;;;;;0.90;0.85;;;13.80;61.00;;;;;;5008216;28;20045;-76
2023/04/10 04:53:01;;;;;;;3.58;1.13;;;13.80;61.00;;;;;;5008888;28;20042;-76
2023/04/10 04:55:40;;;;;;;0.70;0.70;;;13.80;61.10;;;;;;5017040;28;20079;-76
2023/04/10 04:58:36;;;;;;;1.50;0.70;;;13.80;61.20;;;;;;5035493;28;20072;-76
2023/04/10 05:01:29;;;;;;;2.22;0.77;;;13.70;61.00;;;;;;5022829;28;20120;-77
2023/04/10 05:04:14;;;;;;;1.88;0.90;;;13.70;61.00;;;;;;5036419;28;20411;-76
2023/04/10 05:07:16;;;;;;;0.88;0.80;;;13.70;61.10;;;;;;5020652;28;20084;-75
2023/04/10 05:09:51;;;;;;;0.98;0.82;;;13.70;61.10;;;;;;5030037;28;20076;-75
2023/04/10 05:12:40;;;;;;;1.70;1.38;;;13.70;61.20;;;;;;5025700;28;20029;-75
2023/04/10 05:15:20;;;;;;;1.55;0.90;;;13.70;61.20;;;;;;5002749;28;20033;-77
2023/04/10 05:18:04;;;;;;;1.60;1.23;;;13.70;61.30;;;;;;5034788;28;20056;-76
2023/04/10 05:20:53;;;;;;;2.15;1.02;;;13.70;61.30;;;;;;5017041;28;20454;-76
2023/04/10 05:23:41;;;;;;;1.08;0.82;;;13.70;61.40;;;;;;5015656;28;20137;-76
2023/04/10 05:26:27;;;;;;;1.35;1.25;;;13.70;61.50;;;;;;5017842;28;20147;-77
2023/04/10 05:29:09;;;;;;;1.40;1.02;;;13.70;61.50;;;;;;4998213;28;20406;-78
2023/04/10 05:31:52;;;;;;;2.55;1.35;;;13.70;61.60;;;;;;5015010;28;20025;-78
2023/04/10 05:34:36;;;;;;;2.78;1.45;;;13.70;61.70;;;;;;5013803;28;20767;-80
2023/04/10 05:37:27;;;;;;;1.42;1.33;;;13.70;61.70;;;;;;4989523;28;20105;-77
2023/04/10 05:40:16;;;;;;;2.33;1.27;;;13.70;61.80;;;;;;5010581;28;20091;-76
2023/04/10 05:43:14;;;;;;;1.27;1.17;;;13.60;61.70;;;;;;4984220;28;20042;-79
2023/04/10 05:45:59;;;;;;;2.45;1.30;;;13.70;61.90;;;;;;5012235;28;20031;-76
2023/04/10 05:48:44;;;;;;;1.30;1.20;;;13.70;62.00;;;;;;5013286;28;20060;-76
2023/04/10 05:51:21;;;;;;;2.85;1.23;;;13.70;62.10;;;;;;5000936;28;20438;-77
2023/04/10 05:54:12;;;;;;;1.52;1.30;;;13.60;62.00;;;;;;4997433;28;20042;-77
2023/04/10 05:57:01;;;;;;;1.70;1.30;;;13.60;62.10;;;;;;4977467;28;20060;-76
2023/04/10 05:59:51;;;;;;;2.47;1.17;;;13.70;62.30;;;;;;5002521;28;20556;-77
2023/04/10 06:02:36;;;;;;;2.38;1.45;;;13.60;62.20;;;;;;4996294;28;20029;-77
2023/04/10 06:05:02;;;;;;;1.75;1.20;;;13.60;62.30;;;;;;5001245;28;20088;-76
2023/04/10 06:07:32;;;;;;;1.63;1.35;;;13.60;62.30;;;;;;4986832;28;20485;-76
2023/04/10 06:09:58;;;;;;;1.27;1.02;;;13.70;62.60;;;;;;5010412;28;20038;-76
2023/04/10 06:12:24;;;;;;;2.20;1.48;;;13.70;62.60;;;;;;5002767;28;20083;-75
2023/04/10 06:14:51;;;;;;;1.20;1.10;;;13.70;62.70;;;;;;5001357;28;20122;-76
2023/04/10 06:17:20;;;;;;;1.13;1.10;;;13.70;62.80;;;;;;5002102;28;20477;-77
2023/04/10 06:19:46;;;;;;;1.83;1.15;;;13.70;62.80;;;;;;4994559;28;20033;-77
2023/04/10 06:22:12;;;;;;;2.05;0.90;;;13.70;63.00;;;;;;5002457;28;20505;-77
2023/04/10 06:24:38;;;;;;;1.30;1.10;;;13.70;63.10;;;;;;4995949;28;20116;-76
2023/04/10 06:27:05;;;;;;;2.33;1.25;;;13.80;63.40;;;;;;5000808;28;20392;-77
2023/04/10 06:29:31;;;;;;;3.58;1.50;;;13.80;63.60;;;;;;5005191;28;20042;-77
2023/04/10 06:31:56;;;;;;;2.78;1.50;;;13.90;64.40;;;;;;4997514;28;20562;-82
2023/04/10 06:34:22;;;;;;;1.33;1.00;;;14.00;65.00;;;;;;5014000;28;20420;-77
2023/04/10 06:36:59;;;;;;;1.80;1.10;;;14.20;65.70;;;;;;4993639;28;20030;-79
2023/04/10 06:39:25;;;;;;;2.88;0.90;;;14.30;65.90;;;;;;4991663;28;20021;-78
2023/04/10 06:41:52;;;;;;;3.42;0.98;;;14.50;66.30;;;;;;4995613;28;20033;-78
2023/04/10 06:44:38;;;;;;;1.92;1.75;;;14.70;66.60;;;;;;5007282;28;20098;-78
2023/04/10 06:47:05;;;;;;;2.95;1.48;;;14.90;66.80;;;;;;5011222;28;20451;-78
2023/04/10 06:49:31;;;;;;;2.28;1.00;;;15.00;66.90;;;;;;4997442;28;20092;-77
2023/04/10 06:51:57;;;;;;;1.90;1.08;;;15.10;67.10;;;;;;5013492;28;20087;-76
2023/04/10 06:54:23;;;;;;;1.15;0.90;;;15.30;67.30;;;;;;5010531;28;20603;-76
2023/04/10 06:56:49;;;;;;;1.75;0.95;;;15.40;67.40;;;;;;5009024;28;20022;-76
2023/04/10 06:59:15;;;;;;;1.25;1.15;;;15.60;67.60;;;;;;5014273;28;20025;-75
2023/04/10 07:01:40;;;;;;;2.05;0.93;;;15.60;67.50;;;;;;5016706;28;20475;-76
2023/04/10 07:04:07;;;;;;;1.77;0.98;;;15.80;68.20;;;;;;5017085;28;20609;-76
2023/04/10 07:06:33;;;;;;;3.25;1.10;;;15.80;67.50;;;;;;5014256;28;20621;-79
2023/04/10 07:08:59;;;;;;;1.45;0.90;;;16.00;67.80;;;;;;5007466;28;20042;-80
2023/04/10 07:11:25;;;;;;;1.08;0.98;;;16.10;67.90;;;;;;5012355;28;20025;-80
2023/04/10 07:13:52;;;;;;;0.80;0.80;;;16.20;68.00;;;;;;5009050;28;20037;-79
2023/04/10 07:16:18;;;;;;;1.30;0.80;;;16.20;67.80;;;;;;5013922;28;20073;-81
2023/04/10 07:18:44;;;;;;;0.95;0.77;;;16.30;67.90;;;;;;5013797;28;20619;-84
2023/04/10 07:21:11;;;;;;;1.00;0.70;;;16.40;68.00;;;;;;4995031;28;20104;-80
2023/04/10 07:23:37;;;;;;;1.08;0.68;;;16.40;67.80;;;;;;5011144;28;20408;-75
2023/04/10 07:26:04;;;;;;;0.73;0.68;;;16.50;67.90;;;;;;4996672;28;20038;-72
2023/04/10 07:28:32;;;;;;;2.88;0.80;;;16.60;68.00;;;;;;5006632;28;20054;-73
2023/04/10 07:30:58;;;;;;;1.52;0.85;;;16.70;68.00;;;;;;5012023;28;20359;-76
2023/04/10 07:33:24;;;;;;;1.92;0.98;;;16.80;68.10;;;;;;4991985;28;20272;-74
2023/04/10 07:35:50;;;;;;;0.80;0.73;;;16.90;68.00;;;;;;5009553;28;20049;-74
2023/04/10 07:38:16;;;;;;;2.25;0.88;;;17.00;68.00;;;;;;4993319;28;20033;-74
2023/04/10 07:40:42;;;;;;;4.43;1.33;;;17.10;67.90;;;;;;5011465;28;20049;-75
2023/04/10 07:43:08;;;;;;;3.15;1.42;;;17.20;68.00;;;;;;5011386;28;20084;-75
2023/04/10 07:45:34;;;;;;;0.88;0.70;;;17.20;67.70;;;;;;5013225;28;20033;-75
2023/04/10 07:48:01;;;;;;;2.17;0.70;;;17.30;67.70;;;;;;5007566;28;20108;-74
2023/04/10 07:50:27;;;;;;;1.65;0.65;;;17.40;67.80;;;;;;5019333;28;20389;-76
2023/04/10 07:52:53;;;;;;;1.05;0.82;;;17.40;67.70;;;;;;4999666;28;20116;-74
2023/04/10 07:55:19;;;;;;;2.65;1.20;;;17.50;67.70;;;;;;5012041;28;20480;-74
2023/04/10 07:57:45;;;;;;;1.20;0.80;;;17.60;67.70;;;;;;5000535;28;20033;-74
2023/04/10 08:00:12;;;;;;;4.72;1.52;;;17.70;67.70;;;;;;4980826;28;20064;-74
2023/04/10 08:02:40;;;;;;;1.45;0.80;;;17.70;67.50;;;;;;4992856;28;20022;-75
2023/04/10 08:05:07;;;;;;;4.20;0.82;;;17.80;67.40;;;;;;4995288;28;20441;-74
2023/04/10 08:07:33;;;;;;;2.83;1.00;;;17.90;67.40;;;;;;5014462;28;20521;-76
2023/04/10 08:09:58;;;;;;;2.67;1.60;;;17.90;67.20;;;;;;4979649;28;20045;-76
2023/04/10 08:12:25;;;;;;;1.92;1.10;;;18.00;67.20;;;;;;5012038;28;20041;-74
2023/04/10 08:14:51;;;;;;;2.00;1.05;;;18.00;67.00;;;;;;5006601;28;20587;-75
2023/04/10 08:17:16;;;;;;;1.67;0.77;;;18.10;67.00;;;;;;5014942;28;20125;-75
2023/04/10 08:19:42;;;;;;;3.60;0.85;;;18.10;66.90;;;;;;5012650;28;20041;-75
2023/04/10 08:22:08;;;;;;;3.03;0.90;;;18.10;66.80;;;;;;5015180;28;20025;-75
2023/04/10 08:24:34;;;;;;;0.68;0.52;;;18.10;66.80;;;;;;4997848;28;20476;-77
2023/04/10 08:27:00;;;;;;;2.30;0.90;;;18.10;66.70;;;;;;5021553;28;20437;-74
2023/04/10 08:29:26;;;;;;;1.77;0.90;;;18.10;66.70;;;;;;5013232;28;20045;-75
2023/04/10 08:31:53;;;;;;;4.10;0.88;;;18.00;66.50;;;;;;5001689;28;20048;-75
2023/04/10 08:34:19;;;;;;;1.17;0.93;;;18.00;66.40;;;;;;4993608;28;20464;-78
2023/04/10 08:36:46;;;;;;;1.80;0.85;;;18.00;66.40;;;;;;5014844;28;20021;-77
2023/04/10 08:39:11;;;;;;;1.98;0.90;;;18.10;66.50;;;;;;5009096;28;20128;-76
2023/04/10 08:41:40;;;;;;;1.38;0.98;;;18.10;66.40;;;;;;5012377;28;20579;-75
2023/04/10 08:44:06;;;;;;;2.60;0.90;;;18.10;66.30;;;;;;5013432;28;20412;-77
2023/04/10 08:46:35;;;;;;;2.70;0.98;;;18.20;66.30;;;;;;5012161;28;20033;-75
2023/04/10 08:49:03;;;;;;;3.30;1.00;;;18.30;66.30;;;;;;5014320;28;20310;-74
2023/04/10 08:52:01;;;;;;;2.30;1.23;;;18.40;66.10;;;;;;5013041;28;20555;-76
2023/04/10 08:54:28;;;;;;;1.83;1.00;;;18.50;65.90;;;;;;5013683;28;20218;-75
2023/04/10 08:56:55;;;;;;;3.20;1.50;;;18.60;65.80;;;;;;5010843;28;20052;-76
2023/04/10 08:59:21;;;;;;;3.53;1.15;;;18.60;65.60;;;;;;5012790;28;20029;-75
2023/04/10 09:01:48;;;;;;;2.20;1.02;;;18.70;65.60;;;;;;5014526;28;20504;-75
2023/04/10 09:04:18;;;;;;;2.30;1.00;;;18.70;65.50;;;;;;5008544;28;20401;-77
2023/04/10 09:06:47;;;;;;;1.40;0.95;;;18.70;65.40;;;;;;5014010;28;20030;-76
2023/04/10 09:09:12;;;;;;;1.88;0.90;;;18.70;65.20;;;;;;5011663;28;20366;-76
2023/04/10 09:11:54;;;;;;;1.88;1.08;;;18.80;65.30;;;;;;5012479;28;20037;-75
2023/04/10 09:14:24;;;;;;;3.40;0.80;;;19.00;65.30;;;;;;5012134;28;20039;-75
2023/04/10 09:16:52;;;;;;;2.78;1.52;;;19.20;65.20;;;;;;5017001;28;20026;-75
2023/04/10 09:19:31;;;;;;;2.08;0.90;;;19.50;65.10;;;;;;5013419;28;20422;-76
2023/04/10 09:21:57;;;;;;;4.18;1.17;;;19.60;64.60;;;;;;5010880;28;20061;-74
2023/04/10 09:24:24;;;;;;;2.90;1.42;;;19.80;64.60;;;;;;5011290;28;20061;-75
2023/04/10 09:26:50;;;;;;;2.72;1.00;;;19.80;64.40;;;;;;5017267;28;20362;-74
2023/04/10 09:29:16;;;;;;;2.03;1.17;;;19.80;64.30;;;;;;5006891;28;20049;-74
2023/04/10 09:31:42;;;;;;;4.82;1.35;;;19.80;64.30;;;;;;5008386;28;20040;-74
2023/04/10 09:34:17;;;;;;;2.92;1.17;;;19.80;64.30;;;;;;5014814;28;20036;-74
2023/04/10 09:36:55;;;;;;;3.80;1.08;;;19.90;64.40;;;;;;5010768;28;20865;-74
2023/04/10 09:39:43;;;;;;;2.53;1.20;;;20.10;64.40;;;;;;5009397;28;20064;-75
2023/04/10 09:42:13;;;;;;;4.15;1.27;;;20.30;64.20;;;;;;5011028;28;20179;-74
2023/04/10 09:44:41;;;;;;;2.22;1.05;;;20.50;64.10;;;;;;5013491;28;20465;-75
2023/04/10 09:47:13;;;;;;;2.92;0.90;;;20.60;63.90;;;;;;4992211;28;20042;-75
2023/04/10 09:49:47;;;;;;;2.63;1.17;;;20.70;63.60;;;;;;5011478;28;20049;-75
2023/04/10 09:52:22;;;;;;;3.83;1.35;;;20.90;63.70;;;;;;5009147;28;20030;-75
2023/04/10 09:54:48;;;;;;;2.83;1.00;;;21.10;63.50;;;;;;5007546;28;20029;-74
2023/04/10 09:57:20;;;;;;;3.17;1.15;;;21.20;63.30;;;;;;5008962;28;20124;-74
2023/04/10 09:59:49;;;;;;;3.45;1.58;;;21.30;63.10;;;;;;5013622;28;20128;-75
2023/04/10 10:02:17;;;;;;;4.97;1.10;;;21.30;63.00;;;;;;5014912;28;20073;-73
2023/04/10 10:04:45;;;;;;;3.72;1.30;;;21.40;63.00;;;;;;5010678;28;20038;-74
2023/04/10 10:07:13;;;;;;;5.05;1.77;;;21.40;62.70;;;;;;5033581;28;20077;-74
2023/04/10 10:09:40;;;;;;;2.92;1.25;;;21.50;62.60;;;;;;5030914;28;20041;-73
2023/04/10 10:12:09;;;;;;;3.72;1.90;;;21.60;62.40;;;;;;5039600;28;20040;-75
2023/04/10 10:14:52;;;;;;;5.60;1.98;;;21.70;62.10;;;;;;5041584;28;20048;-74
2023/04/10 10:17:23;;;;;;;4.43;1.67;;;21.90;61.80;;;;;;5023270;28;20033;-74
2023/04/10 10:20:08;;;;;;;4.03;1.60;;;21.90;61.60;;;;;;5029352;28;20033;-75
2023/04/10 10:22:36;;;;;;;3.97;1.20;;;21.90;61.40;;;;;;5010686;28;20029;-74
2023/04/10 10:25:03;;;;;;;5.15;1.52;;;21.90;61.50;;;;;;5018594;28;20029;-73
2023/04/10 10:27:33;;;;;;;5.35;1.60;;;21.90;61.40;;;;;;5010536;28;20037;-74
2023/04/10 10:29:59;;;;;;;4.43;1.70;;;22.10;61.50;;;;;;5002319;28;20101;-74
2023/04/10 10:32:26;;;;;;;7.00;1.42;;;22.20;61.30;;;;;;5017638;28;20584;-74
2023/04/10 10:34:53;;;;;;;3.30;1.48;;;22.30;61.10;;;;;;5015796;28;20555;-73
2023/04/10 10:37:22;;;;;;;4.55;1.63;;;22.40;60.90;;;;;;5006127;28;20026;-74
2023/04/10 10:40:06;;;;;;;7.35;2.03;;;22.40;60.80;;;;;;5014289;28;20029;-73
2023/04/10 10:43:01;;;;;;;4.90;1.60;;;22.40;60.60;;;;;;5003457;28;20030;-75
2023/04/10 10:45:40;;;;;;;8.35;2.00;;;22.50;60.50;;;;;;5005789;28;20061;-75
2023/04/10 10:48:08;;;;;;;3.38;2.08;;;22.50;60.30;;;;;;5007075;28;20054;-73
2023/04/10 10:50:49;;;;;;;5.68;2.20;;;22.70;60.40;;;;;;5011758;28;20050;-75
2023/04/10 10:53:36;;;;;;;5.32;1.92;;;22.70;59.50;;;;;;5013692;28;20148;-75
2023/04/10 10:56:17;;;;;;;5.40;2.13;;;22.70;59.30;;;;;;5016798;28;20056;-74
2023/04/10 10:58:51;;;;;;;6.55;2.45;;;22.70;59.30;;;;;;5010662;28;20034;-73
2023/04/10 11:01:19;;;;;;;9.70;3.78;;;22.80;59.20;;;;;;4993465;28;20030;-74
2023/04/10 11:03:45;;;;;;;7.22;2.72;;;22.80;59.00;;;;;;5001005;28;20033;-75
2023/04/10 11:06:13;;;;;;;24.40;7.63;;;22.70;58.70;;;;;;4991041;28;20025;-75
2023/04/10 11:08:43;;;;;;;33.30;19.42;;;22.70;58.70;;;;;;5015966;28;20371;-81
2023/04/10 11:11:16;;;;;;;31.73;15.50;;;22.60;58.60;;;;;;4985901;28;20433;-80
2023/04/10 11:14:05;;;;;;;19.92;10.75;;;22.50;58.50;;;;;;5015189;28;20037;-80
2023/04/10 11:16:35;;;;;;;20.55;11.43;;;22.50;58.20;;;;;;5011166;28;20087;-73
2023/04/10 11:19:06;;;;;;;18.88;9.23;;;22.40;58.20;;;;;;5007937;28;20109;-73
2023/04/10 11:21:33;;;;;;;20.35;10.23;;;22.30;57.90;;;;;;5013858;28;20057;-74
2023/04/10 11:23:59;;;;;;;23.85;9.73;;;22.30;58.00;;;;;;5016238;28;20300;-74
2023/04/10 11:26:38;;;;;;;20.45;7.18;;;22.10;57.90;;;;;;5005959;28;20030;-73
2023/04/10 11:29:06;;;;;;;16.30;8.15;;;22.00;57.70;;;;;;5014039;28;20064;-73
2023/04/10 11:31:32;;;;;;;18.02;7.45;;;21.90;57.70;;;;;;5022712;28;20045;-76
2023/04/10 11:34:03;;;;;;;17.73;7.95;;;21.90;57.80;;;;;;5021509;28;20034;-74
2023/04/10 11:36:30;;;;;;;13.55;6.57;;;21.80;57.60;;;;;;5017106;28;20025;-74
2023/04/10 11:39:24;;;;;;;12.73;6.07;;;21.70;57.80;;;;;;5015117;28;20033;-75
2023/04/10 11:41:51;;;;;;;14.00;5.72;;;21.60;57.40;;;;;;4981529;28;20128;-77
2023/04/10 11:44:21;;;;;;;16.50;5.10;;;21.50;57.30;;;;;;5009208;28;20132;-74
2023/04/10 11:46:49;;;;;;;10.60;5.05;;;21.40;57.10;;;;;;5012003;28;20645;-73
2023/04/10 11:49:24;;;;;;;11.18;5.05;;;21.40;57.30;;;;;;5022634;28;20088;-73
2023/04/10 11:51:51;;;;;;;15.90;5.82;;;21.40;57.30;;;;;;5002650;28;20038;-72
2023/04/10 11:54:27;;;;;;;13.90;4.63;;;21.40;57.40;;;;;;5010994;28;20030;-73
2023/04/10 11:57:02;;;;;;;11.20;4.97;;;21.40;57.60;;;;;;5012857;28;20044;-71
2023/04/10 11:59:32;;;;;;;13.65;4.18;;;21.30;57.50;;;;;;5003726;28;20043;-74
2023/04/10 12:02:14;;;;;;;9.20;4.25;;;21.40;57.80;;;;;;5014207;28;20041;-72
2023/04/10 12:04:42;;;;;;;11.30;4.73;;;21.40;57.70;;;;;;5014358;28;20033;-72
2023/04/10 12:07:09;;;;;;;6.68;2.92;;;21.40;57.70;;;;;;4992912;28;20640;-72
2023/04/10 12:09:35;;;;;;;7.90;3.17;;;21.50;57.80;;;;;;5011710;28;20037;-73
2023/04/10 12:12:03;;;;;;;11.15;3.40;;;21.50;57.80;;;;;;5013799;28;20025;-71
2023/04/10 12:14:30;;;;;;;8.48;3.33;;;21.60;57.80;;;;;;5011021;28;20041;-71
2023/04/10 12:16:57;;;;;;;10.27;3.30;;;21.60;57.70;;;;;;5014827;28;20042;-71
2023/04/10 12:19:24;;;;;;;6.95;2.72;;;21.60;57.50;;;;;;5017184;28;20252;-72
2023/04/10 12:21:50;;;;;;;7.43;3.63;;;21.70;57.50;;;;;;5006667;28;20497;-71
2023/04/10 12:24:48;;;;;;;7.32;2.92;;;21.70;57.30;;;;;;5017881;28;20041;-72
2023/04/10 12:27:21;;;;;;;9.30;3.65;;;21.70;57.00;;;;;;5018845;28;20527;-71
2023/04/10 12:29:50;;;;;;;8.93;3.30;;;21.70;56.80;;;;;;5016826;28;20045;-72
2023/04/10 12:32:16;;;;;;;7.07;2.40;;;21.70;56.80;;;;;;5011659;28;20049;-72
2023/04/10 12:34:50;;;;;;;7.68;3.00;;;21.80;56.80;;;;;;5004251;28;20055;-74
2023/04/10 12:37:16;;;;;;;8.30;2.85;;;21.70;56.40;;;;;;5018362;28;20144;-70
2023/04/10 12:39:42;;;;;;;8.80;3.63;;;21.80;56.50;;;;;;5002114;28;20175;-72
2023/04/10 12:42:15;;;;;;;7.90;3.40;;;21.80;56.30;;;;;;5020804;28;20021;-70
2023/04/10 12:44:59;;;;;;;11.50;2.95;;;21.90;56.40;;;;;;5020963;28;20040;-73
2023/04/10 12:47:27;;;;;;;7.13;2.55;;;21.90;56.20;;;;;;5020484;28;20049;-72
2023/04/10 12:50:03;;;;;;;7.35;2.15;;;22.00;56.30;;;;;;5016138;28;20046;-74
2023/04/10 12:52:29;;;;;;;8.07;2.83;;;22.00;56.00;;;;;;5012137;28;20456;-73
2023/04/10 12:55:12;;;;;;;7.57;2.15;;;22.10;56.10;;;;;;5012887;28;20080;-73
2023/04/10 12:57:41;;;;;;;4.70;2.20;;;22.10;55.70;;;;;;5020128;28;20041;-73
2023/04/10 13:00:08;;;;;;;9.77;2.70;;;22.20;55.70;;;;;;5001998;28;20044;-73
2023/04/10 13:02:36;;;;;;;6.13;2.05;;;22.30;55.70;;;;;;5020445;28;20393;-73
2023/04/10 13:05:03;;;;;;;8.07;2.85;;;22.40;55.60;;;;;;5011927;28;20124;-74
2023/04/10 13:07:29;;;;;;;6.80;2.20;;;22.50;55.50;;;;;;5014891;28;20210;-72
2023/04/10 13:09:55;;;;;;;6.93;2.42;;;22.60;55.40;;;;;;4995814;28;20056;-73